< < Back
Terminal Aerodrome Forecast


Current Version              Previous Versions:   1  2  3  4  5  6  7  8  9  

Terminal Aerodrome Forecast

988
FTUS42 KCHS 300900 AAB
TAFCHS
TAF AMD
KCHS 300931Z 3010/3106 36009KT P6SM SCT008 SCT025
      TEMPO 3010/3012 SCT008 BKN015
     FM301400 02010KT P6SM SCT025 SCT035
     FM302300 03006KT P6SM SCT030=

Latest METAR

284
SAUS80 KWBC 301600 CCA
MTRCHS
METAR KCHS 301556Z 36009KT 10SM CLR 21/12 A3000 RMK AO2 SLP157
T02110117


USA.gov is the U.S. government's official web portal to all federal, state and local government web resources and services.